Current | Forecast
Updated: 1:56 AM JST on October 24, 2017
Observed at Okinawa, Japan
Temperature 66°F
Humidity 88%
Dew Point 62°F
Wind ENE at 5 mph
Pressure 30.01 in (Steady)
Conditions Clear
Visibility 10.0 miles
UV 0 out of 16
Clouds Clear (CLR) : -
Yesterday's Maximum 81°F
Yesterday's Minimum 68°F approx.
Yesterday's Cooling Degree Days 10 approx.
Sunrise6:32 AM JST
Sunset5:52 PM JST
Moon Rise10:09 AM JST
Moon Set9:12 PM JST
Moon PhaseMoon Phase
Waxing Crescent
Raw METARMETAR RODN 231656Z AUTO 06004KT 10SM CLR 19/17 A2999 RMK AO2 SLP161 T01870167


Monday
. High: 80° F.
Tuesday
. High: 78° F.
Wednesday
. High: 77° F.
Thursday
. High: 78° F.
Friday
. High: 82° F.
Saturday
. High: 78° F.
Sunday
. High: 80° F.
Monday
. High: 78° F.

Units: English | Metric

Find the Weather for any City, State or Zipcode, or Country:

U.S. State List | Severe Weather | Tropical Storms | Ski Conditions
United States | Canada | Central America | South America | Asia | Europe | Australia | Africa | Islands

Weather Underground

© Copyright 2017
The Weather Company, LLC